sensor_id;sensor_type;location;lat;lon;timestamp;P1;durP1;ratioP1;P2;durP2;ratioP2
735;SDS011;352;48.626;9.238;2023-02-24T00:00:25;13.67;;;10.43;;
735;SDS011;352;48.626;9.238;2023-02-24T00:03:02;12.10;;;10.80;;
735;SDS011;352;48.626;9.238;2023-02-24T00:05:36;12.00;;;10.10;;
735;SDS011;352;48.626;9.238;2023-02-24T00:08:03;15.43;;;10.63;;
735;SDS011;352;48.626;9.238;2023-02-24T00:10:31;12.50;;;10.90;;
735;SDS011;352;48.626;9.238;2023-02-24T00:12:58;14.00;;;12.20;;
735;SDS011;352;48.626;9.238;2023-02-24T00:15:25;14.93;;;12.57;;
735;SDS011;352;48.626;9.238;2023-02-24T00:17:52;12.80;;;11.40;;
735;SDS011;352;48.626;9.238;2023-02-24T00:20:19;15.50;;;11.60;;
735;SDS011;352;48.626;9.238;2023-02-24T00:22:47;15.33;;;11.10;;
735;SDS011;352;48.626;9.238;2023-02-24T00:25:14;15.47;;;12.80;;
735;SDS011;352;48.626;9.238;2023-02-24T00:27:41;17.87;;;12.70;;
735;SDS011;352;48.626;9.238;2023-02-24T00:30:08;16.40;;;12.00;;
735;SDS011;352;48.626;9.238;2023-02-24T00:32:36;14.47;;;12.23;;
735;SDS011;352;48.626;9.238;2023-02-24T00:35:03;15.47;;;11.57;;
735;SDS011;352;48.626;9.238;2023-02-24T00:37:30;15.80;;;12.67;;
735;SDS011;352;48.626;9.238;2023-02-24T00:39:58;14.13;;;12.40;;
735;SDS011;352;48.626;9.238;2023-02-24T00:42:25;15.10;;;13.23;;
735;SDS011;352;48.626;9.238;2023-02-24T00:44:51;16.83;;;12.40;;
735;SDS011;352;48.626;9.238;2023-02-24T00:47:19;14.77;;;10.87;;
735;SDS011;352;48.626;9.238;2023-02-24T00:49:47;16.57;;;11.70;;
735;SDS011;352;48.626;9.238;2023-02-24T00:52:15;16.67;;;12.53;;
735;SDS011;352;48.626;9.238;2023-02-24T00:54:45;21.13;;;13.07;;
735;SDS011;352;48.626;9.238;2023-02-24T00:57:14;16.23;;;12.30;;
735;SDS011;352;48.626;9.238;2023-02-24T00:59:44;15.97;;;11.80;;
735;SDS011;352;48.626;9.238;2023-02-24T01:02:12;15.90;;;12.17;;
735;SDS011;352;48.626;9.238;2023-02-24T01:04:40;14.90;;;11.33;;
735;SDS011;352;48.626;9.238;2023-02-24T01:07:08;13.77;;;11.40;;
735;SDS011;352;48.626;9.238;2023-02-24T01:09:37;18.83;;;12.50;;
735;SDS011;352;48.626;9.238;2023-02-24T01:12:06;18.83;;;11.30;;
735;SDS011;352;48.626;9.238;2023-02-24T01:15:04;13.07;;;10.20;;
735;SDS011;352;48.626;9.238;2023-02-24T01:17:34;14.90;;;11.77;;
735;SDS011;352;48.626;9.238;2023-02-24T01:20:02;14.40;;;11.20;;
735;SDS011;352;48.626;9.238;2023-02-24T01:22:40;13.80;;;10.70;;
735;SDS011;352;48.626;9.238;2023-02-24T01:25:07;14.20;;;10.50;;
735;SDS011;352;48.626;9.238;2023-02-24T01:27:34;11.80;;;10.57;;
735;SDS011;352;48.626;9.238;2023-02-24T01:30:01;14.57;;;10.40;;
735;SDS011;352;48.626;9.238;2023-02-24T01:32:30;12.10;;;10.73;;
735;SDS011;352;48.626;9.238;2023-02-24T01:34:56;15.03;;;11.30;;
735;SDS011;352;48.626;9.238;2023-02-24T01:37:23;16.03;;;11.33;;
735;SDS011;352;48.626;9.238;2023-02-24T01:39:50;12.67;;;11.20;;
735;SDS011;352;48.626;9.238;2023-02-24T01:42:18;15.47;;;11.20;;
735;SDS011;352;48.626;9.238;2023-02-24T01:45:03;15.97;;;11.13;;
735;SDS011;352;48.626;9.238;2023-02-24T01:47:42;17.30;;;11.23;;
735;SDS011;352;48.626;9.238;2023-02-24T01:50:11;18.60;;;12.23;;
735;SDS011;352;48.626;9.238;2023-02-24T01:52:39;17.60;;;12.70;;
735;SDS011;352;48.626;9.238;2023-02-24T01:55:10;14.33;;;11.77;;
735;SDS011;352;48.626;9.238;2023-02-24T01:57:41;14.80;;;12.63;;
735;SDS011;352;48.626;9.238;2023-02-24T02:00:10;16.17;;;12.53;;
735;SDS011;352;48.626;9.238;2023-02-24T02:02:56;14.57;;;11.10;;
735;SDS011;352;48.626;9.238;2023-02-24T02:05:25;14.20;;;11.27;;
735;SDS011;352;48.626;9.238;2023-02-24T02:07:52;14.67;;;10.67;;
735;SDS011;352;48.626;9.238;2023-02-24T02:10:21;12.50;;;10.97;;
735;SDS011;352;48.626;9.238;2023-02-24T02:12:49;15.00;;;11.20;;
735;SDS011;352;48.626;9.238;2023-02-24T02:15:16;18.20;;;12.18;;
735;SDS011;352;48.626;9.238;2023-02-24T02:17:47;17.87;;;11.57;;
735;SDS011;352;48.626;9.238;2023-02-24T02:20:37;15.10;;;11.17;;
735;SDS011;352;48.626;9.238;2023-02-24T02:23:25;15.27;;;11.83;;
735;SDS011;352;48.626;9.238;2023-02-24T02:26:27;12.47;;;10.97;;
735;SDS011;352;48.626;9.238;2023-02-24T02:29:23;17.30;;;12.30;;
735;SDS011;352;48.626;9.238;2023-02-24T02:32:16;15.13;;;10.47;;
735;SDS011;352;48.626;9.238;2023-02-24T02:35:06;15.43;;;11.10;;
735;SDS011;352;48.626;9.238;2023-02-24T02:37:39;12.43;;;10.37;;
735;SDS011;352;48.626;9.238;2023-02-24T02:40:13;15.27;;;11.13;;
735;SDS011;352;48.626;9.238;2023-02-24T02:42:47;13.57;;;10.80;;
735;SDS011;352;48.626;9.238;2023-02-24T02:45:23;17.27;;;11.90;;
735;SDS011;352;48.626;9.238;2023-02-24T02:47:56;14.93;;;11.43;;
735;SDS011;352;48.626;9.238;2023-02-24T02:50:28;14.65;;;10.70;;
735;SDS011;352;48.626;9.238;2023-02-24T02:53:03;15.40;;;11.03;;
735;SDS011;352;48.626;9.238;2023-02-24T02:55:36;13.03;;;10.00;;
735;SDS011;352;48.626;9.238;2023-02-24T02:58:07;12.13;;;10.83;;
735;SDS011;352;48.626;9.238;2023-02-24T03:00:42;11.83;;;10.00;;
735;SDS011;352;48.626;9.238;2023-02-24T03:03:32;14.53;;;10.70;;
735;SDS011;352;48.626;9.238;2023-02-24T03:06:03;15.35;;;11.68;;
735;SDS011;352;48.626;9.238;2023-02-24T03:08:33;18.00;;;11.70;;
735;SDS011;352;48.626;9.238;2023-02-24T03:11:03;15.77;;;11.37;;
735;SDS011;352;48.626;9.238;2023-02-24T03:13:36;17.10;;;12.27;;
735;SDS011;352;48.626;9.238;2023-02-24T03:16:06;17.42;;;12.07;;
735;SDS011;352;48.626;9.238;2023-02-24T03:18:36;18.03;;;12.87;;
735;SDS011;352;48.626;9.238;2023-02-24T03:21:10;16.10;;;12.23;;
735;SDS011;352;48.626;9.238;2023-02-24T03:23:42;17.40;;;12.60;;
735;SDS011;352;48.626;9.238;2023-02-24T03:26:13;17.38;;;11.93;;
735;SDS011;352;48.626;9.238;2023-02-24T03:28:47;15.20;;;11.80;;
735;SDS011;352;48.626;9.238;2023-02-24T03:31:42;14.27;;;11.90;;
735;SDS011;352;48.626;9.238;2023-02-24T03:34:12;16.02;;;11.90;;
735;SDS011;352;48.626;9.238;2023-02-24T03:36:45;15.00;;;12.32;;
735;SDS011;352;48.626;9.238;2023-02-24T03:39:12;14.10;;;12.10;;
735;SDS011;352;48.626;9.238;2023-02-24T03:41:41;16.63;;;11.80;;
735;SDS011;352;48.626;9.238;2023-02-24T03:44:11;13.63;;;11.43;;
735;SDS011;352;48.626;9.238;2023-02-24T03:46:38;14.98;;;11.40;;
735;SDS011;352;48.626;9.238;2023-02-24T03:49:07;22.35;;;11.43;;
735;SDS011;352;48.626;9.238;2023-02-24T03:51:41;17.02;;;11.15;;
735;SDS011;352;48.626;9.238;2023-02-24T03:54:16;13.40;;;11.00;;
735;SDS011;352;48.626;9.238;2023-02-24T03:56:57;12.98;;;11.02;;
735;SDS011;352;48.626;9.238;2023-02-24T03:59:38;17.80;;;11.70;;
735;SDS011;352;48.626;9.238;2023-02-24T04:02:13;17.40;;;11.00;;
735;SDS011;352;48.626;9.238;2023-02-24T04:04:45;19.83;;;12.52;;
735;SDS011;352;48.626;9.238;2023-02-24T04:07:20;17.73;;;12.32;;
735;SDS011;352;48.626;9.238;2023-02-24T04:10:01;18.83;;;11.98;;
735;SDS011;352;48.626;9.238;2023-02-24T04:12:34;16.40;;;11.50;;
735;SDS011;352;48.626;9.238;2023-02-24T04:15:08;19.27;;;12.02;;
735;SDS011;352;48.626;9.238;2023-02-24T04:17:42;15.63;;;12.27;;
735;SDS011;352;48.626;9.238;2023-02-24T04:20:11;15.45;;;11.80;;
735;SDS011;352;48.626;9.238;2023-02-24T04:22:41;16.13;;;12.30;;
735;SDS011;352;48.626;9.238;2023-02-24T04:25:14;14.20;;;12.52;;
735;SDS011;352;48.626;9.238;2023-02-24T04:27:43;15.07;;;12.05;;
735;SDS011;352;48.626;9.238;2023-02-24T04:30:12;14.53;;;11.77;;
735;SDS011;352;48.626;9.238;2023-02-24T04:32:39;16.10;;;12.65;;
735;SDS011;352;48.626;9.238;2023-02-24T04:35:08;18.27;;;13.20;;
735;SDS011;352;48.626;9.238;2023-02-24T04:37:38;15.87;;;11.30;;
735;SDS011;352;48.626;9.238;2023-02-24T04:40:09;12.73;;;10.90;;
735;SDS011;352;48.626;9.238;2023-02-24T04:42:38;15.02;;;11.88;;
735;SDS011;352;48.626;9.238;2023-02-24T04:45:10;12.48;;;11.18;;
735;SDS011;352;48.626;9.238;2023-02-24T04:47:37;16.20;;;12.57;;
735;SDS011;352;48.626;9.238;2023-02-24T04:50:07;15.60;;;12.18;;
735;SDS011;352;48.626;9.238;2023-02-24T04:52:35;15.20;;;12.70;;
735;SDS011;352;48.626;9.238;2023-02-24T04:55:02;18.47;;;12.70;;
735;SDS011;352;48.626;9.238;2023-02-24T04:57:34;15.38;;;12.40;;
735;SDS011;352;48.626;9.238;2023-02-24T05:00:03;15.30;;;12.63;;
735;SDS011;352;48.626;9.238;2023-02-24T05:02:37;16.92;;;12.05;;
735;SDS011;352;48.626;9.238;2023-02-24T05:05:04;17.23;;;12.53;;
735;SDS011;352;48.626;9.238;2023-02-24T05:07:35;19.23;;;12.30;;
735;SDS011;352;48.626;9.238;2023-02-24T05:10:03;18.65;;;12.15;;
735;SDS011;352;48.626;9.238;2023-02-24T05:12:31;14.40;;;11.57;;
735;SDS011;352;48.626;9.238;2023-02-24T05:14:57;14.53;;;11.60;;
735;SDS011;352;48.626;9.238;2023-02-24T05:17:26;14.27;;;12.40;;
735;SDS011;352;48.626;9.238;2023-02-24T05:19:53;18.95;;;13.80;;
735;SDS011;352;48.626;9.238;2023-02-24T05:22:37;15.38;;;11.93;;
735;SDS011;352;48.626;9.238;2023-02-24T05:25:04;16.63;;;12.70;;
735;SDS011;352;48.626;9.238;2023-02-24T05:27:32;16.75;;;12.10;;
735;SDS011;352;48.626;9.238;2023-02-24T05:30:03;16.60;;;12.60;;
735;SDS011;352;48.626;9.238;2023-02-24T05:32:35;16.10;;;11.90;;
735;SDS011;352;48.626;9.238;2023-02-24T05:35:02;13.37;;;11.20;;
735;SDS011;352;48.626;9.238;2023-02-24T05:37:30;21.27;;;11.83;;
735;SDS011;352;48.626;9.238;2023-02-24T05:39:58;16.13;;;12.90;;
735;SDS011;352;48.626;9.238;2023-02-24T05:42:25;16.13;;;11.13;;
735;SDS011;352;48.626;9.238;2023-02-24T05:44:52;16.63;;;12.52;;
735;SDS011;352;48.626;9.238;2023-02-24T05:47:18;18.70;;;13.10;;
735;SDS011;352;48.626;9.238;2023-02-24T05:49:48;14.93;;;12.98;;
735;SDS011;352;48.626;9.238;2023-02-24T05:52:18;18.55;;;12.10;;
735;SDS011;352;48.626;9.238;2023-02-24T05:54:45;16.00;;;12.77;;
735;SDS011;352;48.626;9.238;2023-02-24T05:57:12;14.60;;;11.48;;
735;SDS011;352;48.626;9.238;2023-02-24T05:59:41;14.93;;;11.70;;
735;SDS011;352;48.626;9.238;2023-02-24T06:02:09;17.85;;;15.88;;
735;SDS011;352;48.626;9.238;2023-02-24T06:04:38;20.13;;;14.85;;
735;SDS011;352;48.626;9.238;2023-02-24T06:07:12;24.57;;;17.83;;
735;SDS011;352;48.626;9.238;2023-02-24T06:09:42;21.13;;;17.57;;
735;SDS011;352;48.626;9.238;2023-02-24T06:12:10;16.10;;;14.40;;
735;SDS011;352;48.626;9.238;2023-02-24T06:14:38;15.40;;;11.93;;
735;SDS011;352;48.626;9.238;2023-02-24T06:17:05;17.23;;;12.18;;
735;SDS011;352;48.626;9.238;2023-02-24T06:19:32;14.43;;;12.53;;
735;SDS011;352;48.626;9.238;2023-02-24T06:21:59;19.57;;;12.80;;
735;SDS011;352;48.626;9.238;2023-02-24T06:24:28;15.90;;;13.15;;
735;SDS011;352;48.626;9.238;2023-02-24T06:26:57;16.80;;;12.23;;
735;SDS011;352;48.626;9.238;2023-02-24T06:29:27;12.93;;;11.52;;
735;SDS011;352;48.626;9.238;2023-02-24T06:31:54;16.05;;;13.48;;
735;SDS011;352;48.626;9.238;2023-02-24T06:34:22;22.40;;;13.67;;
735;SDS011;352;48.626;9.238;2023-02-24T06:36:51;17.50;;;12.47;;
735;SDS011;352;48.626;9.238;2023-02-24T06:39:18;17.73;;;12.73;;
735;SDS011;352;48.626;9.238;2023-02-24T06:41:49;17.65;;;14.68;;
735;SDS011;352;48.626;9.238;2023-02-24T06:44:16;16.08;;;11.63;;
735;SDS011;352;48.626;9.238;2023-02-24T06:46:43;20.63;;;13.20;;
735;SDS011;352;48.626;9.238;2023-02-24T06:49:11;25.83;;;13.30;;
735;SDS011;352;48.626;9.238;2023-02-24T06:51:38;22.08;;;14.73;;
735;SDS011;352;48.626;9.238;2023-02-24T06:54:07;21.40;;;15.25;;
735;SDS011;352;48.626;9.238;2023-02-24T06:56:34;26.42;;;14.15;;
735;SDS011;352;48.626;9.238;2023-02-24T06:59:04;20.33;;;13.53;;
735;SDS011;352;48.626;9.238;2023-02-24T07:01:36;24.07;;;15.13;;
735;SDS011;352;48.626;9.238;2023-02-24T07:04:09;19.50;;;14.47;;
735;SDS011;352;48.626;9.238;2023-02-24T07:06:49;24.48;;;16.23;;
735;SDS011;352;48.626;9.238;2023-02-24T07:09:19;24.73;;;15.80;;
735;SDS011;352;48.626;9.238;2023-02-24T07:11:48;25.03;;;15.83;;
735;SDS011;352;48.626;9.238;2023-02-24T07:14:18;26.20;;;14.87;;
735;SDS011;352;48.626;9.238;2023-02-24T07:16:46;27.55;;;15.75;;
735;SDS011;352;48.626;9.238;2023-02-24T07:19:18;34.43;;;17.33;;
735;SDS011;352;48.626;9.238;2023-02-24T07:21:46;28.40;;;16.33;;
735;SDS011;352;48.626;9.238;2023-02-24T07:24:18;29.97;;;17.27;;
735;SDS011;352;48.626;9.238;2023-02-24T07:26:53;34.80;;;18.03;;
735;SDS011;352;48.626;9.238;2023-02-24T07:29:22;36.97;;;20.30;;
735;SDS011;352;48.626;9.238;2023-02-24T07:31:49;30.90;;;18.00;;
735;SDS011;352;48.626;9.238;2023-02-24T07:34:19;32.07;;;17.83;;
735;SDS011;352;48.626;9.238;2023-02-24T07:36:48;38.60;;;23.10;;
735;SDS011;352;48.626;9.238;2023-02-24T07:39:16;32.27;;;18.90;;
735;SDS011;352;48.626;9.238;2023-02-24T07:41:43;39.93;;;23.27;;
735;SDS011;352;48.626;9.238;2023-02-24T07:44:13;31.43;;;19.37;;
735;SDS011;352;48.626;9.238;2023-02-24T07:46:43;30.87;;;18.73;;
735;SDS011;352;48.626;9.238;2023-02-24T07:49:13;35.87;;;19.87;;
735;SDS011;352;48.626;9.238;2023-02-24T07:51:43;32.47;;;19.90;;
735;SDS011;352;48.626;9.238;2023-02-24T07:54:11;31.13;;;19.27;;
735;SDS011;352;48.626;9.238;2023-02-24T07:56:39;35.67;;;19.60;;
735;SDS011;352;48.626;9.238;2023-02-24T07:59:12;36.50;;;19.23;;
735;SDS011;352;48.626;9.238;2023-02-24T08:01:44;32.90;;;19.93;;
735;SDS011;352;48.626;9.238;2023-02-24T08:04:14;29.10;;;19.20;;
735;SDS011;352;48.626;9.238;2023-02-24T08:06:42;28.40;;;19.03;;
735;SDS011;352;48.626;9.238;2023-02-24T08:09:10;29.30;;;18.70;;
735;SDS011;352;48.626;9.238;2023-02-24T08:11:45;26.27;;;16.87;;
735;SDS011;352;48.626;9.238;2023-02-24T08:14:16;28.63;;;19.23;;
735;SDS011;352;48.626;9.238;2023-02-24T08:16:46;34.00;;;19.03;;
735;SDS011;352;48.626;9.238;2023-02-24T08:19:16;29.80;;;18.63;;
735;SDS011;352;48.626;9.238;2023-02-24T08:21:46;34.53;;;19.23;;
735;SDS011;352;48.626;9.238;2023-02-24T08:24:15;27.60;;;16.30;;
735;SDS011;352;48.626;9.238;2023-02-24T08:26:44;28.40;;;18.50;;
735;SDS011;352;48.626;9.238;2023-02-24T08:29:17;32.07;;;18.50;;
735;SDS011;352;48.626;9.238;2023-02-24T08:31:46;27.53;;;17.13;;
735;SDS011;352;48.626;9.238;2023-02-24T08:34:14;27.93;;;17.03;;
735;SDS011;352;48.626;9.238;2023-02-24T08:36:40;31.93;;;19.57;;
735;SDS011;352;48.626;9.238;2023-02-24T08:39:12;25.53;;;17.27;;
735;SDS011;352;48.626;9.238;2023-02-24T08:41:40;26.67;;;17.10;;
735;SDS011;352;48.626;9.238;2023-02-24T08:44:15;22.70;;;14.57;;
735;SDS011;352;48.626;9.238;2023-02-24T08:46:45;26.27;;;16.40;;
735;SDS011;352;48.626;9.238;2023-02-24T08:49:14;26.73;;;16.60;;
735;SDS011;352;48.626;9.238;2023-02-24T08:51:42;28.03;;;16.77;;
735;SDS011;352;48.626;9.238;2023-02-24T08:54:10;25.23;;;15.17;;
735;SDS011;352;48.626;9.238;2023-02-24T08:56:40;23.30;;;13.77;;
735;SDS011;352;48.626;9.238;2023-02-24T08:59:13;21.17;;;14.73;;
735;SDS011;352;48.626;9.238;2023-02-24T09:02:03;18.80;;;13.40;;
735;SDS011;352;48.626;9.238;2023-02-24T09:04:50;23.53;;;13.33;;
735;SDS011;352;48.626;9.238;2023-02-24T09:07:18;23.73;;;13.80;;
735;SDS011;352;48.626;9.238;2023-02-24T09:09:47;19.63;;;12.90;;
735;SDS011;352;48.626;9.238;2023-02-24T09:12:14;18.37;;;12.47;;
735;SDS011;352;48.626;9.238;2023-02-24T09:14:49;16.40;;;11.67;;
735;SDS011;352;48.626;9.238;2023-02-24T09:17:21;19.73;;;12.33;;
735;SDS011;352;48.626;9.238;2023-02-24T09:20:04;17.43;;;12.00;;
735;SDS011;352;48.626;9.238;2023-02-24T09:23:20;16.53;;;11.83;;
735;SDS011;352;48.626;9.238;2023-02-24T09:25:54;15.47;;;11.80;;
735;SDS011;352;48.626;9.238;2023-02-24T09:28:21;17.47;;;11.20;;
735;SDS011;352;48.626;9.238;2023-02-24T09:30:49;17.97;;;12.57;;
735;SDS011;352;48.626;9.238;2023-02-24T09:33:23;21.10;;;13.33;;
735;SDS011;352;48.626;9.238;2023-02-24T09:35:52;21.20;;;13.63;;
735;SDS011;352;48.626;9.238;2023-02-24T09:38:33;19.27;;;12.67;;
735;SDS011;352;48.626;9.238;2023-02-24T09:41:32;21.63;;;13.30;;
735;SDS011;352;48.626;9.238;2023-02-24T09:44:19;16.63;;;12.40;;
735;SDS011;352;48.626;9.238;2023-02-24T09:46:50;18.00;;;12.00;;
735;SDS011;352;48.626;9.238;2023-02-24T09:49:25;16.20;;;11.17;;
735;SDS011;352;48.626;9.238;2023-02-24T09:52:03;17.70;;;12.30;;
735;SDS011;352;48.626;9.238;2023-02-24T09:54:40;15.90;;;11.67;;
735;SDS011;352;48.626;9.238;2023-02-24T09:57:18;18.80;;;12.20;;
735;SDS011;352;48.626;9.238;2023-02-24T09:59:50;17.03;;;11.57;;
735;SDS011;352;48.626;9.238;2023-02-24T10:02:48;14.13;;;11.07;;
735;SDS011;352;48.626;9.238;2023-02-24T10:05:26;17.70;;;11.10;;
735;SDS011;352;48.626;9.238;2023-02-24T10:08:02;17.27;;;10.17;;
735;SDS011;352;48.626;9.238;2023-02-24T10:10:32;14.43;;;10.70;;
735;SDS011;352;48.626;9.238;2023-02-24T10:13:05;15.83;;;10.20;;
735;SDS011;352;48.626;9.238;2023-02-24T10:15:41;22.90;;;10.63;;
735;SDS011;352;48.626;9.238;2023-02-24T10:18:27;17.03;;;11.13;;
735;SDS011;352;48.626;9.238;2023-02-24T10:20:59;18.60;;;11.83;;
735;SDS011;352;48.626;9.238;2023-02-24T10:23:43;14.67;;;10.03;;
735;SDS011;352;48.626;9.238;2023-02-24T10:26:22;14.60;;;9.93;;
735;SDS011;352;48.626;9.238;2023-02-24T10:28:58;15.47;;;10.60;;
735;SDS011;352;48.626;9.238;2023-02-24T10:31:33;19.17;;;11.57;;
735;SDS011;352;48.626;9.238;2023-02-24T10:34:07;16.20;;;10.47;;
735;SDS011;352;48.626;9.238;2023-02-24T10:36:37;18.20;;;11.30;;
735;SDS011;352;48.626;9.238;2023-02-24T10:39:08;20.30;;;11.50;;
735;SDS011;352;48.626;9.238;2023-02-24T10:41:41;18.17;;;10.73;;
735;SDS011;352;48.626;9.238;2023-02-24T10:44:11;13.67;;;9.87;;
735;SDS011;352;48.626;9.238;2023-02-24T10:46:44;13.10;;;10.50;;
735;SDS011;352;48.626;9.238;2023-02-24T10:49:11;15.03;;;10.60;;
735;SDS011;352;48.626;9.238;2023-02-24T10:51:42;16.07;;;10.30;;
735;SDS011;352;48.626;9.238;2023-02-24T10:54:18;14.20;;;9.13;;
735;SDS011;352;48.626;9.238;2023-02-24T10:56:58;14.33;;;9.77;;
735;SDS011;352;48.626;9.238;2023-02-24T10:59:46;19.80;;;11.20;;
735;SDS011;352;48.626;9.238;2023-02-24T11:02:34;16.77;;;10.30;;
735;SDS011;352;48.626;9.238;2023-02-24T11:05:20;16.33;;;10.47;;
735;SDS011;352;48.626;9.238;2023-02-24T11:08:10;15.60;;;10.43;;
735;SDS011;352;48.626;9.238;2023-02-24T11:11:00;18.53;;;11.17;;
735;SDS011;352;48.626;9.238;2023-02-24T11:13:32;23.57;;;11.50;;
735;SDS011;352;48.626;9.238;2023-02-24T11:16:17;16.67;;;12.57;;
735;SDS011;352;48.626;9.238;2023-02-24T11:19:13;15.97;;;11.90;;
735;SDS011;352;48.626;9.238;2023-02-24T11:21:40;16.37;;;12.90;;
735;SDS011;352;48.626;9.238;2023-02-24T11:24:10;22.03;;;11.90;;
735;SDS011;352;48.626;9.238;2023-02-24T11:26:43;14.47;;;11.30;;
735;SDS011;352;48.626;9.238;2023-02-24T11:29:19;16.30;;;11.50;;
735;SDS011;352;48.626;9.238;2023-02-24T11:32:03;16.77;;;10.60;;
735;SDS011;352;48.626;9.238;2023-02-24T11:34:42;15.00;;;11.50;;
735;SDS011;352;48.626;9.238;2023-02-24T11:37:19;16.77;;;11.73;;
735;SDS011;352;48.626;9.238;2023-02-24T11:40:00;18.33;;;12.43;;
735;SDS011;352;48.626;9.238;2023-02-24T11:42:30;17.23;;;11.40;;
735;SDS011;352;48.626;9.238;2023-02-24T11:45:03;18.40;;;12.23;;
735;SDS011;352;48.626;9.238;2023-02-24T11:47:38;16.50;;;11.50;;
735;SDS011;352;48.626;9.238;2023-02-24T11:50:20;17.47;;;12.00;;
735;SDS011;352;48.626;9.238;2023-02-24T11:52:57;16.03;;;11.83;;
735;SDS011;352;48.626;9.238;2023-02-24T11:55:30;17.10;;;11.90;;
735;SDS011;352;48.626;9.238;2023-02-24T11:58:05;15.20;;;11.80;;
735;SDS011;352;48.626;9.238;2023-02-24T12:00:38;17.50;;;11.67;;
735;SDS011;352;48.626;9.238;2023-02-24T12:03:15;25.60;;;12.97;;
735;SDS011;352;48.626;9.238;2023-02-24T12:05:48;18.90;;;11.90;;
735;SDS011;352;48.626;9.238;2023-02-24T12:08:21;14.13;;;10.30;;
735;SDS011;352;48.626;9.238;2023-02-24T12:10:55;15.93;;;11.83;;
735;SDS011;352;48.626;9.238;2023-02-24T12:13:29;15.93;;;9.37;;
735;SDS011;352;48.626;9.238;2023-02-24T12:16:03;18.40;;;11.37;;
735;SDS011;352;48.626;9.238;2023-02-24T12:18:37;19.23;;;11.17;;
735;SDS011;352;48.626;9.238;2023-02-24T12:21:08;13.10;;;10.70;;
735;SDS011;352;48.626;9.238;2023-02-24T12:23:41;14.97;;;11.20;;
735;SDS011;352;48.626;9.238;2023-02-24T12:26:16;18.40;;;9.80;;
735;SDS011;352;48.626;9.238;2023-02-24T12:28:54;14.37;;;10.10;;
735;SDS011;352;48.626;9.238;2023-02-24T12:31:35;15.73;;;10.40;;
735;SDS011;352;48.626;9.238;2023-02-24T12:34:20;15.87;;;10.20;;
735;SDS011;352;48.626;9.238;2023-02-24T12:36:55;17.13;;;10.67;;
735;SDS011;352;48.626;9.238;2023-02-24T12:39:38;16.73;;;10.17;;
735;SDS011;352;48.626;9.238;2023-02-24T12:42:16;14.50;;;10.47;;
735;SDS011;352;48.626;9.238;2023-02-24T12:44:51;15.83;;;9.17;;
735;SDS011;352;48.626;9.238;2023-02-24T12:47:24;15.00;;;9.83;;
735;SDS011;352;48.626;9.238;2023-02-24T12:50:09;16.97;;;10.10;;
735;SDS011;352;48.626;9.238;2023-02-24T12:52:50;13.97;;;9.50;;
735;SDS011;352;48.626;9.238;2023-02-24T12:55:22;12.63;;;9.63;;
735;SDS011;352;48.626;9.238;2023-02-24T12:57:59;13.03;;;9.70;;
735;SDS011;352;48.626;9.238;2023-02-24T13:00:34;17.30;;;9.97;;
735;SDS011;352;48.626;9.238;2023-02-24T13:03:12;18.87;;;10.47;;
735;SDS011;352;48.626;9.238;2023-02-24T13:05:50;15.90;;;10.60;;
735;SDS011;352;48.626;9.238;2023-02-24T13:08:29;12.83;;;9.07;;
735;SDS011;352;48.626;9.238;2023-02-24T13:11:10;13.60;;;9.47;;
735;SDS011;352;48.626;9.238;2023-02-24T13:13:47;16.57;;;8.83;;
735;SDS011;352;48.626;9.238;2023-02-24T13:16:29;13.97;;;9.33;;
735;SDS011;352;48.626;9.238;2023-02-24T13:19:03;12.63;;;9.00;;
735;SDS011;352;48.626;9.238;2023-02-24T13:21:41;18.20;;;9.87;;
735;SDS011;352;48.626;9.238;2023-02-24T13:24:16;14.73;;;9.90;;
735;SDS011;352;48.626;9.238;2023-02-24T13:26:46;13.83;;;9.43;;
735;SDS011;352;48.626;9.238;2023-02-24T13:29:14;15.63;;;8.73;;
735;SDS011;352;48.626;9.238;2023-02-24T13:31:43;17.13;;;10.20;;
735;SDS011;352;48.626;9.238;2023-02-24T13:34:13;13.47;;;9.50;;
735;SDS011;352;48.626;9.238;2023-02-24T13:36:53;12.00;;;8.70;;
735;SDS011;352;48.626;9.238;2023-02-24T13:39:21;17.50;;;9.40;;
735;SDS011;352;48.626;9.238;2023-02-24T13:41:59;13.27;;;9.70;;
735;SDS011;352;48.626;9.238;2023-02-24T13:44:30;11.33;;;8.10;;
735;SDS011;352;48.626;9.238;2023-02-24T13:47:05;16.00;;;9.70;;
735;SDS011;352;48.626;9.238;2023-02-24T13:50:14;12.73;;;8.10;;
735;SDS011;352;48.626;9.238;2023-02-24T13:52:58;16.67;;;9.20;;
735;SDS011;352;48.626;9.238;2023-02-24T14:01:30;14.70;;;7.87;;
735;SDS011;352;48.626;9.238;2023-02-24T14:04:12;15.40;;;7.60;;
735;SDS011;352;48.626;9.238;2023-02-24T14:06:44;9.67;;;7.03;;
735;SDS011;352;48.626;9.238;2023-02-24T14:09:13;13.70;;;9.00;;
735;SDS011;352;48.626;9.238;2023-02-24T14:11:48;14.37;;;7.83;;
735;SDS011;352;48.626;9.238;2023-02-24T14:14:16;9.93;;;7.60;;
735;SDS011;352;48.626;9.238;2023-02-24T14:16:45;11.63;;;7.87;;
735;SDS011;352;48.626;9.238;2023-02-24T14:19:15;11.93;;;8.10;;
735;SDS011;352;48.626;9.238;2023-02-24T14:21:46;12.43;;;8.57;;
735;SDS011;352;48.626;9.238;2023-02-24T14:24:15;13.23;;;7.80;;
735;SDS011;352;48.626;9.238;2023-02-24T14:26:44;13.57;;;8.10;;
735;SDS011;352;48.626;9.238;2023-02-24T14:29:12;13.10;;;8.10;;
735;SDS011;352;48.626;9.238;2023-02-24T14:31:46;12.33;;;7.67;;
735;SDS011;352;48.626;9.238;2023-02-24T14:34:15;13.97;;;7.50;;
735;SDS011;352;48.626;9.238;2023-02-24T14:36:44;17.10;;;8.60;;
735;SDS011;352;48.626;9.238;2023-02-24T14:39:14;13.20;;;7.97;;
735;SDS011;352;48.626;9.238;2023-02-24T14:41:42;15.43;;;9.77;;
735;SDS011;352;48.626;9.238;2023-02-24T14:44:17;10.53;;;8.10;;
735;SDS011;352;48.626;9.238;2023-02-24T14:46:49;11.53;;;7.90;;
735;SDS011;352;48.626;9.238;2023-02-24T14:49:18;14.37;;;8.60;;
735;SDS011;352;48.626;9.238;2023-02-24T14:51:49;13.43;;;7.67;;
735;SDS011;352;48.626;9.238;2023-02-24T14:54:21;10.73;;;7.50;;
735;SDS011;352;48.626;9.238;2023-02-24T14:56:58;13.20;;;8.00;;
735;SDS011;352;48.626;9.238;2023-02-24T14:59:28;13.60;;;8.17;;
735;SDS011;352;48.626;9.238;2023-02-24T15:01:59;13.67;;;7.50;;
735;SDS011;352;48.626;9.238;2023-02-24T15:04:32;16.80;;;7.13;;
735;SDS011;352;48.626;9.238;2023-02-24T15:07:00;13.37;;;6.10;;
735;SDS011;352;48.626;9.238;2023-02-24T15:09:32;7.90;;;5.97;;
735;SDS011;352;48.626;9.238;2023-02-24T15:12:06;9.90;;;7.83;;
735;SDS011;352;48.626;9.238;2023-02-24T15:14:36;15.77;;;6.73;;
735;SDS011;352;48.626;9.238;2023-02-24T15:17:07;11.80;;;6.50;;
735;SDS011;352;48.626;9.238;2023-02-24T15:19:40;13.00;;;6.40;;
735;SDS011;352;48.626;9.238;2023-02-24T15:22:18;10.07;;;6.77;;
735;SDS011;352;48.626;9.238;2023-02-24T15:24:46;12.10;;;7.67;;
735;SDS011;352;48.626;9.238;2023-02-24T15:27:20;8.93;;;6.60;;
735;SDS011;352;48.626;9.238;2023-02-24T15:29:55;12.70;;;6.30;;
735;SDS011;352;48.626;9.238;2023-02-24T15:32:28;12.10;;;6.80;;
735;SDS011;352;48.626;9.238;2023-02-24T15:34:56;11.60;;;6.67;;
735;SDS011;352;48.626;9.238;2023-02-24T15:37:24;13.13;;;7.00;;
735;SDS011;352;48.626;9.238;2023-02-24T15:39:56;11.73;;;7.27;;
735;SDS011;352;48.626;9.238;2023-02-24T15:42:30;12.10;;;6.70;;
735;SDS011;352;48.626;9.238;2023-02-24T15:44:58;9.80;;;5.83;;
735;SDS011;352;48.626;9.238;2023-02-24T15:47:26;13.53;;;6.63;;
735;SDS011;352;48.626;9.238;2023-02-24T15:49:56;8.40;;;6.40;;
735;SDS011;352;48.626;9.238;2023-02-24T15:52:24;14.43;;;6.43;;
735;SDS011;352;48.626;9.238;2023-02-24T15:54:53;10.97;;;6.33;;
735;SDS011;352;48.626;9.238;2023-02-24T15:57:20;14.33;;;6.60;;
735;SDS011;352;48.626;9.238;2023-02-24T15:59:47;10.63;;;6.20;;